CST,Max TemperatureF,Mean TemperatureF,Min TemperatureF,Max Dew PointF,MeanDew PointF,Min DewpointF,Max Humidity, Mean Humidity, Min Humidity, Max Sea Level PressureIn, Mean Sea Level PressureIn, Min Sea Level PressureIn, Max VisibilityMiles, Mean VisibilityMiles, Min VisibilityMiles, Max Wind SpeedMPH, Mean Wind SpeedMPH, Max Gust SpeedMPH,PrecipitationIn, CloudCover, Events, WindDirDegrees
2012-12-1,,,,,,,,,,,,,,,,,,,,,,
2012-12-2,,,,,,,,,,,,,,,,,,,,,,
2012-12-3,,,,,,,,,,,,,,,,,,,,,,
2012-12-4,,,,,,,,,,,,,,,,,,,,,,
2012-12-5,60,55,50,57,42,32,100,64,34,30.29,30.22,30.17,10,9,1,10,5,,0.00,6,,34
2012-12-6,66,60,53,50,48,45,82,63,52,30.12,30.06,30.03,10,9,1,12,7,,0.00,5,,152
2012-12-7,62,56,51,54,50,45,88,77,68,30.06,30.00,29.93,10,10,10,14,7,,0.00,6,,170
2012-12-8,66,60,55,57,54,52,94,82,64,30.00,29.98,29.94,10,10,9,14,5,,0.00,6,,196
2012-12-9,69,64,59,57,56,54,94,77,60,30.01,29.95,29.82,10,9,3,15,7,,0.00,5,,178
2012-12-10,64,47,30,59,46,28,100,94,68,29.99,29.82,29.72,10,7,2,18,9,,0.00,8,,316
2012-12-11,37,30,24,28,25,21,93,80,65,30.23,30.12,29.99,10,10,10,14,8,,0.00,4,,1
2012-12-12,46,35,24,27,23,18,86,65,34,30.31,30.27,30.22,10,10,10,12,5,,0.00,0,,24
2012-12-13,55,38,21,28,22,14,93,66,21,30.38,30.33,30.29,10,10,10,5,0,,0.00,0,,30
2012-12-14,57,40,24,37,31,19,86,67,41,30.35,30.26,30.13,10,10,10,7,1,,0.00,0,,152
2012-12-15,60,52,44,54,43,34,94,70,48,30.17,30.05,29.94,10,10,4,17,7,,0.00,5,,169
2012-12-16,60,56,53,57,54,50,100,92,77,29.93,29.86,29.78,10,9,2,18,10,,0.00,4,,181
2012-12-17,60,52,44,55,51,41,100,93,77,29.81,29.74,29.63,10,8,1,16,7,,0.00,6,,216
2012-12-18,55,45,35,41,35,30,93,69,47,29.98,29.92,29.80,10,10,9,16,7,,0.00,2,,221
2012-12-19,62,50,37,48,42,34,93,69,55,30.07,30.00,29.93,10,10,10,10,6,,0.00,0,,172
2012-12-20,57,45,33,54,37,21,100,73,48,29.93,29.77,29.59,10,9,2,32,15,45,0.00,7,,216
2012-12-21,39,34,28,21,17,14,69,55,39,30.25,30.10,29.94,10,10,10,24,16,31,0.00,1,,290
2012-12-22,48,32,17,21,15,7,86,54,20,30.34,30.25,30.15,10,10,4,6,2,,0.00,0,,256
2012-12-23,50,41,32,45,33,19,100,74,40,30.14,30.06,29.93,10,8,1,13,5,,0.00,5,,184
2012-12-24,55,45,35,55,47,36,100,97,82,29.97,29.88,29.81,10,7,0,13,5,,0.00,6,,224
2012-12-25,50,46,41,46,43,41,100,98,87,30.03,29.89,29.48,10,2,0,22,7,24,0.00,8,,43
2012-12-26,51,40,30,50,34,27,94,90,81,30.06,29.71,29.37,10,8,2,24,14,31,0.00,8,,270
2012-12-27,33,32,30,28,27,27,93,83,75,30.16,30.11,30.07,10,10,10,12,6,,0.00,8,,5
2012-12-28,41,34,28,39,32,27,100,89,81,30.10,29.94,29.72,10,9,2,13,3,,0.00,6,,149
2012-12-29,39,34,28,39,30,21,100,90,74,30.33,30.04,29.78,10,8,2,17,11,,0.00,8,,296
2012-12-30,39,30,21,25,21,18,93,73,49,30.50,30.41,30.33,10,10,10,14,6,,0.00,2,,3
2012-12-31,46,34,23,39,28,19,93,70,49,30.35,30.23,30.02,10,10,9,12,3,,0.00,3,,173